createdAt,value
2018-08-09T01:00:36.931Z,7.30
2018-08-09T01:01:36.880Z,7.40
2018-08-09T01:02:36.909Z,7.10
2018-08-09T01:03:36.854Z,8.00
2018-08-09T01:04:36.842Z,8.40
2018-08-09T01:05:36.835Z,6.50
2018-08-09T01:06:36.820Z,6.30
2018-08-09T01:07:36.857Z,8.00
2018-08-09T01:08:36.799Z,7.70
2018-08-09T01:09:36.787Z,6.50
2018-08-09T01:10:36.777Z,6.70
2018-08-09T01:11:36.771Z,7.10
2018-08-09T01:12:36.797Z,7.40
2018-08-09T01:13:36.744Z,7.90
2018-08-09T01:14:36.736Z,8.60
2018-08-09T01:15:36.721Z,7.20
2018-08-09T01:16:36.712Z,7.00
2018-08-09T01:17:36.747Z,8.00
2018-08-09T01:18:36.690Z,7.50
2018-08-09T01:19:36.677Z,7.70
2018-08-09T01:20:36.665Z,7.70
2018-08-09T01:21:36.659Z,7.40
2018-08-09T01:22:36.689Z,7.40
2018-08-09T01:23:36.634Z,7.30
2018-08-09T01:24:36.628Z,8.80
2018-08-09T01:25:36.615Z,7.20
2018-08-09T01:26:36.601Z,7.80
2018-08-09T01:27:36.639Z,7.90
2018-08-09T01:28:36.583Z,9.60
2018-08-09T01:29:36.568Z,6.90
2018-08-09T01:30:36.563Z,7.50
2018-08-09T01:31:36.551Z,7.50
2018-08-09T01:32:36.581Z,7.50
2018-08-09T01:33:36.523Z,6.90
2018-08-09T01:34:36.511Z,7.00
2018-08-09T01:35:36.504Z,6.90
2018-08-09T01:36:36.491Z,7.30
2018-08-09T01:37:36.526Z,8.00
2018-08-09T01:38:36.468Z,6.90
2018-08-09T01:39:36.458Z,7.80
2018-08-09T01:40:36.446Z,6.80
2018-08-09T01:41:36.436Z,7.70
2018-08-09T01:42:36.474Z,8.40
2018-08-09T01:43:36.413Z,6.50
2018-08-09T01:44:36.406Z,7.00
2018-08-09T01:45:36.395Z,7.00
2018-08-09T01:46:36.381Z,8.80
2018-08-09T01:47:36.424Z,8.40
2018-08-09T01:48:36.358Z,7.50
2018-08-09T01:49:36.348Z,8.20
2018-08-09T01:50:36.346Z,7.90
2018-08-09T01:51:36.328Z,7.80
2018-08-09T01:52:36.361Z,6.70
2018-08-09T01:53:36.304Z,8.10
2018-08-09T01:54:36.295Z,7.20
2018-08-09T01:55:36.281Z,7.90
2018-08-09T01:56:36.272Z,8.50
2018-08-09T01:57:36.314Z,7.40
2018-08-09T01:58:36.251Z,7.90
2018-08-09T01:59:36.238Z,8.90
2018-08-09T02:00:36.235Z,8.00
2018-08-09T02:01:36.219Z,7.50
2018-08-09T02:02:36.250Z,7.70
2018-08-09T02:03:36.194Z,8.70
2018-08-09T02:04:36.206Z,7.60
2018-08-09T02:05:36.175Z,7.60
2018-08-09T02:06:36.160Z,7.60
2018-08-09T02:07:36.201Z,7.50
2018-08-09T02:08:36.141Z,9.70
2018-08-09T02:09:36.131Z,9.10
2018-08-09T02:10:36.116Z,8.00
2018-08-09T02:11:36.106Z,8.00
2018-08-09T02:12:36.095Z,8.70
2018-08-09T02:13:36.127Z,7.70
2018-08-09T02:14:36.071Z,8.10
2018-08-09T02:15:36.062Z,7.70
2018-08-09T02:16:36.059Z,8.40
2018-08-09T02:17:36.041Z,7.90
2018-08-09T02:18:36.073Z,7.50
2018-08-09T02:19:36.027Z,7.80
2018-08-09T02:20:36.007Z,7.70
2018-08-09T02:21:35.999Z,8.50
2018-08-09T02:22:35.983Z,8.70
2018-08-09T02:23:36.022Z,7.90
2018-08-09T02:24:35.976Z,7.80
2018-08-09T02:25:35.955Z,7.50
2018-08-09T02:26:35.941Z,8.20
2018-08-09T02:27:35.934Z,8.80
2018-08-09T02:28:35.965Z,8.30
2018-08-09T02:29:35.908Z,7.70
2018-08-09T02:30:35.897Z,9.50
2018-08-09T02:31:35.887Z,9.20
2018-08-09T02:32:35.877Z,8.90
2018-08-09T02:33:35.909Z,9.00
2018-08-09T02:34:35.872Z,9.00
2018-08-09T02:35:35.850Z,8.40
2018-08-09T02:36:35.831Z,8.90
2018-08-09T02:37:35.819Z,8.90
2018-08-09T02:38:35.874Z,8.00
2018-08-09T02:39:35.798Z,9.50
2018-08-09T02:40:35.791Z,8.40
2018-08-09T02:41:35.782Z,9.30
2018-08-09T02:42:35.771Z,9.40
2018-08-09T02:43:35.799Z,9.10
2018-08-09T02:44:35.744Z,9.40
2018-08-09T02:45:35.732Z,9.10
2018-08-09T02:46:35.770Z,9.40
2018-08-09T02:47:35.709Z,11.50
2018-08-09T02:48:35.751Z,9.50
2018-08-09T02:49:35.690Z,8.80
2018-08-09T02:50:35.678Z,9.30
2018-08-09T02:51:35.670Z,10.00
2018-08-09T02:52:35.654Z,9.30
2018-08-09T02:53:35.702Z,10.80
2018-08-09T02:54:35.637Z,9.40
2018-08-09T02:55:35.643Z,9.70
2018-08-09T02:56:35.611Z,9.60
2018-08-09T02:57:35.599Z,10.20
2018-08-09T02:58:35.635Z,11.00
2018-08-09T02:59:35.578Z,10.60
2018-08-09T03:00:35.598Z,10.40
2018-08-09T03:01:35.556Z,11.70
2018-08-09T03:02:35.548Z,13.10
2018-08-09T03:03:35.578Z,10.30
2018-08-09T03:04:35.524Z,11.20
2018-08-09T03:05:35.517Z,12.10
2018-08-09T03:06:35.501Z,11.20
2018-08-09T03:07:35.493Z,11.90
2018-08-09T03:08:35.525Z,11.80
2018-08-09T03:09:35.468Z,11.50
2018-08-09T03:10:35.458Z,10.80
2018-08-09T03:11:35.447Z,11.50
2018-08-09T03:12:35.435Z,9.90
2018-08-09T03:13:35.473Z,10.00
2018-08-09T03:14:35.420Z,10.10
2018-08-09T03:15:35.403Z,8.90
2018-08-09T03:16:35.393Z,9.00
2018-08-09T03:17:35.381Z,9.70
2018-08-09T03:18:35.414Z,9.70
2018-08-09T03:19:35.359Z,8.90
2018-08-09T03:20:35.354Z,10.20
2018-08-09T03:21:35.393Z,9.10
2018-08-09T03:22:35.325Z,11.20
2018-08-09T03:23:35.372Z,9.50
2018-08-09T03:24:35.305Z,9.50
2018-08-09T03:25:35.293Z,9.50
2018-08-09T03:26:35.287Z,10.50
2018-08-09T03:27:35.269Z,9.80
2018-08-09T03:28:35.338Z,10.60
2018-08-09T03:29:35.250Z,9.30
2018-08-09T03:30:35.237Z,10.40
2018-08-09T03:31:35.234Z,9.30
2018-08-09T03:32:35.216Z,9.50
2018-08-09T03:33:35.253Z,9.80
2018-08-09T03:34:35.205Z,10.00
2018-08-09T03:35:35.181Z,10.20
2018-08-09T03:36:35.169Z,9.80
2018-08-09T03:37:35.163Z,8.50
2018-08-09T03:38:35.195Z,8.80
2018-08-09T03:39:35.137Z,9.20
2018-08-09T03:40:35.127Z,9.60
2018-08-09T03:41:35.117Z,12.00
2018-08-09T03:42:35.109Z,10.70
2018-08-09T03:43:35.149Z,10.80
2018-08-09T03:44:35.085Z,10.80
2018-08-09T03:45:35.076Z,11.50
2018-08-09T03:46:35.062Z,11.00
2018-08-09T03:47:35.055Z,11.40
2018-08-09T03:48:35.039Z,10.80
2018-08-09T03:49:35.082Z,10.20
2018-08-09T03:50:35.021Z,11.20
2018-08-09T03:51:35.011Z,11.40
2018-08-09T03:52:34.998Z,11.90
2018-08-09T03:53:34.984Z,10.90
2018-08-09T03:54:35.025Z,10.70
2018-08-09T03:55:34.963Z,11.60
2018-08-09T03:56:34.951Z,12.00
2018-08-09T03:57:34.941Z,11.80
2018-08-09T03:58:34.936Z,12.10
2018-08-09T03:59:34.985Z,12.00
2018-08-09T04:00:34.912Z,11.60
2018-08-09T04:01:34.897Z,12.50
2018-08-09T04:02:34.887Z,11.80
2018-08-09T04:03:34.875Z,11.10
2018-08-09T04:04:34.912Z,11.40
2018-08-09T04:05:34.854Z,11.30
2018-08-09T04:06:34.845Z,10.90
2018-08-09T04:07:34.859Z,11.90
2018-08-09T04:08:34.821Z,13.20
2018-08-09T04:09:34.864Z,12.80
2018-08-09T04:10:34.802Z,12.50
2018-08-09T04:11:34.790Z,11.40
2018-08-09T04:12:34.779Z,12.00
2018-08-09T04:13:34.768Z,12.60
2018-08-09T04:14:34.802Z,12.70
2018-08-09T04:15:34.746Z,12.10
2018-08-09T04:16:34.734Z,12.00
2018-08-09T04:17:34.724Z,13.30
2018-08-09T04:18:34.711Z,12.20
2018-08-09T04:19:34.748Z,12.00
2018-08-09T04:20:34.694Z,11.50
2018-08-09T04:21:34.680Z,14.60
2018-08-09T04:22:34.668Z,11.20
2018-08-09T04:23:34.658Z,11.60
2018-08-09T04:24:34.690Z,11.20
2018-08-09T04:25:34.643Z,12.20
2018-08-09T04:26:34.663Z,11.70
2018-08-09T04:27:34.612Z,12.80
2018-08-09T04:28:34.600Z,12.60
2018-08-09T04:29:34.635Z,13.60
2018-08-09T04:30:34.578Z,12.50
2018-08-09T04:31:34.569Z,12.00
2018-08-09T04:32:34.554Z,14.40
2018-08-09T04:33:34.545Z,12.30
2018-08-09T04:34:34.588Z,12.40
2018-08-09T04:35:34.522Z,12.20
2018-08-09T04:36:34.510Z,12.00
2018-08-09T04:37:34.499Z,12.40
2018-08-09T04:38:34.488Z,12.10
2018-08-09T04:39:34.524Z,11.20
2018-08-09T04:40:34.471Z,11.50
2018-08-09T04:41:34.456Z,12.40
2018-08-09T04:42:34.449Z,11.50
2018-08-09T04:43:34.433Z,11.70
2018-08-09T04:44:34.481Z,12.30
2018-08-09T04:45:34.413Z,11.70
2018-08-09T04:46:34.399Z,11.90
2018-08-09T04:47:34.388Z,13.00
2018-08-09T04:48:34.383Z,12.20
2018-08-09T04:49:34.419Z,12.00
2018-08-09T04:50:34.356Z,12.90
2018-08-09T04:51:34.352Z,12.30
2018-08-09T04:52:34.350Z,12.30
2018-08-09T04:53:34.330Z,12.30
2018-08-09T04:54:34.358Z,13.20
2018-08-09T04:55:34.312Z,13.20
2018-08-09T04:56:34.289Z,13.50
2018-08-09T04:57:34.282Z,14.20
2018-08-09T04:58:34.271Z,14.90
2018-08-09T04:59:34.306Z,14.60
2018-08-09T05:00:34.246Z,12.60
2018-08-09T05:01:34.241Z,13.10
2018-08-09T05:02:34.226Z,13.60
2018-08-09T05:03:34.216Z,14.20
2018-08-09T05:04:34.245Z,13.80
2018-08-09T05:05:34.237Z,15.20
2018-08-09T05:06:34.184Z,15.00
2018-08-09T05:07:34.172Z,18.10
2018-08-09T05:08:34.157Z,14.90
2018-08-09T05:09:34.150Z,16.40
2018-08-09T05:10:34.183Z,14.10
2018-08-09T05:11:34.126Z,14.40
2018-08-09T05:12:34.116Z,13.70
2018-08-09T05:13:34.103Z,13.00
2018-08-09T05:14:34.093Z,14.20
2018-08-09T05:15:34.131Z,14.00
2018-08-09T05:16:34.072Z,15.50
2018-08-09T05:17:34.061Z,14.50
2018-08-09T05:18:34.052Z,13.40
2018-08-09T05:19:34.039Z,13.80
2018-08-09T05:20:34.074Z,14.10
2018-08-09T05:21:34.017Z,14.30
2018-08-09T05:22:34.016Z,13.90
2018-08-09T05:23:33.999Z,14.60
2018-08-09T05:24:33.983Z,14.60
2018-08-09T05:25:34.021Z,14.20
2018-08-09T05:26:33.962Z,15.90
2018-08-09T05:27:33.953Z,13.90
2018-08-09T05:28:33.941Z,14.20
2018-08-09T05:29:33.929Z,14.30
2018-08-09T05:30:33.964Z,14.50
2018-08-09T05:31:33.906Z,14.90
2018-08-09T05:32:33.902Z,16.20
2018-08-09T05:33:33.888Z,15.90
2018-08-09T05:34:33.898Z,16.90
2018-08-09T05:35:33.905Z,16.60
2018-08-09T05:36:33.853Z,15.40
2018-08-09T05:37:33.840Z,16.90
2018-08-09T05:38:33.828Z,18.70
2018-08-09T05:39:33.820Z,15.80
2018-08-09T05:40:33.855Z,17.20
2018-08-09T05:41:33.795Z,16.80
2018-08-09T05:42:33.785Z,15.60
2018-08-09T05:43:33.773Z,15.80
2018-08-09T05:44:33.765Z,16.90
2018-08-09T05:45:33.803Z,15.50
2018-08-09T05:46:33.751Z,15.70
2018-08-09T05:47:33.729Z,15.80
2018-08-09T05:48:33.732Z,15.40
2018-08-09T05:49:33.718Z,16.10
2018-08-09T05:50:33.742Z,17.10
2018-08-09T05:51:33.692Z,15.70
2018-08-09T05:52:33.700Z,15.40
2018-08-09T05:53:33.663Z,15.90
2018-08-09T05:54:33.655Z,16.10
2018-08-09T05:55:33.687Z,16.60
2018-08-09T05:56:33.634Z,16.40
2018-08-09T05:57:33.638Z,15.70
2018-08-09T05:58:33.662Z,17.50
2018-08-09T05:59:33.598Z,16.10
2018-08-09T06:00:33.588Z,14.50
2018-08-09T06:01:33.622Z,16.10
2018-08-09T06:02:33.567Z,15.90
2018-08-09T06:03:33.555Z,15.80
2018-08-09T06:04:33.544Z,16.70
2018-08-09T06:05:33.582Z,16.20
2018-08-09T06:06:33.568Z,17.20
2018-08-09T06:07:33.513Z,16.40
2018-08-09T06:08:33.503Z,16.40
2018-08-09T06:09:33.488Z,15.50
2018-08-09T06:10:33.481Z,15.80
2018-08-09T06:11:33.515Z,14.80
2018-08-09T06:12:33.458Z,15.80
2018-08-09T06:13:33.522Z,16.50
2018-08-09T06:14:33.434Z,16.30
2018-08-09T06:15:33.421Z,14.60
2018-08-09T06:16:33.484Z,16.00
2018-08-09T06:17:33.403Z,17.50
2018-08-09T06:18:33.389Z,14.70
2018-08-09T06:19:33.382Z,15.10
2018-08-09T06:20:33.370Z,17.10
2018-08-09T06:21:33.402Z,16.50
2018-08-09T06:22:33.348Z,20.30
2018-08-09T06:23:33.341Z,21.40
2018-08-09T06:24:33.326Z,23.60
2018-08-09T06:25:33.314Z,20.50
2018-08-09T06:26:33.350Z,19.50
2018-08-09T06:27:33.297Z,18.90
2018-08-09T06:28:33.286Z,17.90
2018-08-09T06:29:33.271Z,17.30
2018-08-09T06:30:33.271Z,19.20
2018-08-09T06:31:33.294Z,18.50
2018-08-09T06:32:33.240Z,18.30
2018-08-09T06:33:33.310Z,17.10
2018-08-09T06:34:33.214Z,16.20
2018-08-09T06:35:33.203Z,15.50
2018-08-09T06:36:33.239Z,13.70
2018-08-09T06:37:33.186Z,13.20
2018-08-09T06:38:33.174Z,12.80
2018-08-09T06:39:33.160Z,13.90
2018-08-09T06:40:33.154Z,13.30
2018-08-09T06:41:33.197Z,11.90
2018-08-09T06:42:33.131Z,12.70
2018-08-09T06:43:33.121Z,12.10
2018-08-09T06:44:33.106Z,12.20
2018-08-09T06:45:33.097Z,13.10
2018-08-09T06:46:33.083Z,13.30
2018-08-09T06:47:33.164Z,12.30
2018-08-09T06:48:33.069Z,14.30
2018-08-09T06:49:33.052Z,12.30
2018-08-09T06:50:33.051Z,11.30
2018-08-09T06:51:33.029Z,11.70
2018-08-09T06:52:33.064Z,11.00
2018-08-09T06:53:33.006Z,10.70
2018-08-09T06:54:33.000Z,11.10
2018-08-09T06:55:32.984Z,10.90
2018-08-09T06:56:32.973Z,12.40
2018-08-09T06:57:33.013Z,10.60
2018-08-09T06:58:32.951Z,10.60
2018-08-09T06:59:32.939Z,10.70
2018-08-09T07:00:32.930Z,10.60
2018-08-09T07:01:32.920Z,9.90
2018-08-09T07:02:32.951Z,9.00
2018-08-09T07:03:32.895Z,8.90
2018-08-09T07:04:32.886Z,10.80
2018-08-09T07:05:32.872Z,9.00
2018-08-09T07:06:32.863Z,11.00
2018-08-09T07:07:32.896Z,8.50
2018-08-09T07:08:32.840Z,8.40
2018-08-09T07:09:32.829Z,8.70
2018-08-09T07:10:32.817Z,9.00
2018-08-09T07:11:32.808Z,8.80
2018-08-09T07:12:32.841Z,8.90
2018-08-09T07:13:32.789Z,9.70
2018-08-09T07:14:32.773Z,8.10
2018-08-09T07:15:32.763Z,9.80
2018-08-09T07:16:32.762Z,8.70
2018-08-09T07:17:32.787Z,8.70
2018-08-09T07:18:32.732Z,8.80
2018-08-09T07:19:32.724Z,11.00
2018-08-09T07:20:32.707Z,8.60
2018-08-09T07:21:32.698Z,8.30
2018-08-09T07:22:32.733Z,8.50
2018-08-09T07:23:32.676Z,9.00
2018-08-09T07:24:32.671Z,8.60
2018-08-09T07:25:32.655Z,9.10
2018-08-09T07:26:32.720Z,8.40
2018-08-09T07:27:32.718Z,9.20
2018-08-09T07:28:32.624Z,8.60
2018-08-09T07:29:32.616Z,9.40
2018-08-09T07:30:32.601Z,9.70
2018-08-09T07:31:32.589Z,9.00
2018-08-09T07:32:32.625Z,9.60
2018-08-09T07:33:32.567Z,8.50
2018-08-09T07:34:32.556Z,9.70
2018-08-09T07:35:32.543Z,7.90
2018-08-09T07:36:32.574Z,9.10
2018-08-09T07:37:32.583Z,10.50
2018-08-09T07:38:32.511Z,10.50
2018-08-09T07:39:32.611Z,8.10
2018-08-09T07:40:32.487Z,8.40
2018-08-09T07:41:32.476Z,7.90
2018-08-09T07:42:32.516Z,9.70
2018-08-09T07:43:32.469Z,8.90
2018-08-09T07:44:32.443Z,8.30
2018-08-09T07:45:32.434Z,8.10
2018-08-09T07:46:32.428Z,8.30
2018-08-09T07:47:32.468Z,9.50
2018-08-09T07:48:32.425Z,8.60
2018-08-09T07:49:32.387Z,9.80
2018-08-09T07:50:32.375Z,10.10
2018-08-09T07:51:32.372Z,9.20
2018-08-09T07:52:32.412Z,8.50
2018-08-09T07:53:32.343Z,8.30
2018-08-09T07:54:32.351Z,9.30
2018-08-09T07:55:32.321Z,10.50
2018-08-09T07:56:32.314Z,9.20
2018-08-09T07:57:32.365Z,9.90
2018-08-09T07:58:32.290Z,11.20
2018-08-09T07:59:32.278Z,9.40
2018-08-09T08:00:32.274Z,13.00
2018-08-09T08:01:32.258Z,7.90
2018-08-09T08:02:32.326Z,9.10
2018-08-09T08:03:32.239Z,9.90
2018-08-09T08:04:32.228Z,10.10
2018-08-09T08:05:32.214Z,9.20
2018-08-09T08:06:32.208Z,9.00
2018-08-09T08:07:32.197Z,11.30
2018-08-09T08:08:32.310Z,9.40
2018-08-09T08:09:32.178Z,10.80
2018-08-09T08:10:32.165Z,11.30
2018-08-09T08:11:32.171Z,9.70
2018-08-09T08:12:32.147Z,7.80
2018-08-09T08:13:32.186Z,9.80
2018-08-09T08:14:32.127Z,7.50
2018-08-09T08:15:32.110Z,7.10
2018-08-09T08:16:32.108Z,8.50
2018-08-09T08:17:32.085Z,9.00
2018-08-09T08:18:32.119Z,10.00
2018-08-09T08:19:32.065Z,8.30
2018-08-09T08:20:32.052Z,7.00
2018-08-09T08:21:32.041Z,9.00
2018-08-09T08:22:32.034Z,10.80
2018-08-09T08:23:32.070Z,8.40
2018-08-09T08:24:32.008Z,8.40
2018-08-09T08:25:31.998Z,8.30
2018-08-09T08:26:31.986Z,10.90
2018-08-09T08:27:31.976Z,10.00
2018-08-09T08:28:32.019Z,9.10
2018-08-09T08:29:31.953Z,9.10
2018-08-09T08:30:31.948Z,8.20
2018-08-09T08:31:31.938Z,8.00
2018-08-09T08:32:31.942Z,7.30
2018-08-09T08:33:32.006Z,7.60
2018-08-09T08:34:31.920Z,10.20
2018-08-09T08:35:31.944Z,7.50
2018-08-09T08:36:31.891Z,8.80
2018-08-09T08:37:31.879Z,9.20
2018-08-09T08:38:32.057Z,7.60
2018-08-09T08:39:31.849Z,7.60
2018-08-09T08:40:31.841Z,8.40
2018-08-09T08:41:31.905Z,7.60
2018-08-09T08:42:31.817Z,13.10
2018-08-09T08:43:31.859Z,8.70
2018-08-09T08:44:31.799Z,7.80
2018-08-09T08:45:31.792Z,9.60
2018-08-09T08:46:31.783Z,9.90
2018-08-09T08:47:31.849Z,7.60
2018-08-09T08:48:31.798Z,10.00
2018-08-09T08:49:31.848Z,8.80
2018-08-09T08:50:31.731Z,8.90
2018-08-09T08:51:31.725Z,9.30
2018-08-09T08:52:31.711Z,9.60
2018-08-09T08:53:31.742Z,9.80
2018-08-09T08:54:31.688Z,8.40
2018-08-09T08:55:31.682Z,7.20
2018-08-09T08:56:31.664Z,7.80
2018-08-09T08:57:31.661Z,7.50
2018-08-09T08:58:31.691Z,7.80
2018-08-09T08:59:31.645Z,8.30
2018-08-09T09:00:31.625Z,6.70
2018-08-09T09:01:31.630Z,7.10
2018-08-09T09:02:31.602Z,6.90
2018-08-09T09:03:31.654Z,8.10
2018-08-09T09:04:31.582Z,10.60
2018-08-09T09:05:31.568Z,8.40
2018-08-09T09:06:31.556Z,9.50
2018-08-09T09:07:31.545Z,10.60
2018-08-09T09:08:31.536Z,8.60
2018-08-09T09:09:31.568Z,9.10
2018-08-09T09:10:31.514Z,9.70
2018-08-09T09:11:31.506Z,8.50
2018-08-09T09:12:31.492Z,9.20
2018-08-09T09:13:31.483Z,9.80
2018-08-09T09:14:31.525Z,8.50
2018-08-09T09:15:31.463Z,7.00
2018-08-09T09:16:31.451Z,9.40
2018-08-09T09:17:31.441Z,8.10
2018-08-09T09:18:31.443Z,9.20
2018-08-09T09:19:31.468Z,8.80
2018-08-09T09:20:31.410Z,8.10
2018-08-09T09:21:31.396Z,9.50
2018-08-09T09:22:31.384Z,7.60
2018-08-09T09:23:31.387Z,10.00
2018-08-09T09:24:31.413Z,7.70
2018-08-09T09:25:31.350Z,7.80
2018-08-09T09:26:31.352Z,8.70
2018-08-09T09:27:31.332Z,9.30
2018-08-09T09:28:31.320Z,8.30
2018-08-09T09:29:31.354Z,9.90
2018-08-09T09:30:31.298Z,7.00
2018-08-09T09:31:31.312Z,7.60
2018-08-09T09:32:31.302Z,8.20
2018-08-09T09:33:31.311Z,8.00
2018-08-09T09:34:31.324Z,9.20
2018-08-09T09:35:31.245Z,8.90
2018-08-09T09:36:31.249Z,8.80
2018-08-09T09:37:31.228Z,8.80
2018-08-09T09:38:31.232Z,7.40
2018-08-09T09:39:31.254Z,7.40
2018-08-09T09:40:31.199Z,9.40
2018-08-09T09:41:31.258Z,9.70
2018-08-09T09:42:31.169Z,8.70
2018-08-09T09:43:31.163Z,9.70
2018-08-09T09:44:31.229Z,9.60
2018-08-09T09:45:31.137Z,9.80
2018-08-09T09:46:31.135Z,8.70
2018-08-09T09:47:31.120Z,8.90
2018-08-09T09:48:31.122Z,10.40
2018-08-09T09:49:31.152Z,9.10
2018-08-09T09:50:31.084Z,9.10
2018-08-09T09:51:31.074Z,9.10
2018-08-09T09:52:31.062Z,8.50
2018-08-09T09:53:31.051Z,8.40
2018-08-09T09:54:31.089Z,10.50
2018-08-09T09:55:31.044Z,8.50
2018-08-09T09:56:31.024Z,10.20
2018-08-09T09:57:31.007Z,10.50
2018-08-09T09:58:30.998Z,9.00
2018-08-09T09:59:31.045Z,7.70
2018-08-09T10:00:30.976Z,8.20
2018-08-09T10:01:30.965Z,7.50
2018-08-09T10:02:30.952Z,9.10
2018-08-09T10:03:30.942Z,7.30
2018-08-09T10:04:30.978Z,8.90
2018-08-09T10:05:30.920Z,7.80
2018-08-09T10:06:30.911Z,8.50
2018-08-09T10:07:30.902Z,10.90
2018-08-09T10:08:30.891Z,9.70
2018-08-09T10:09:30.923Z,8.30
2018-08-09T10:10:30.933Z,9.50
2018-08-09T10:11:30.869Z,8.60
2018-08-09T10:12:30.845Z,7.40
2018-08-09T10:13:30.841Z,9.40
2018-08-09T10:14:30.870Z,9.40
2018-08-09T10:15:30.818Z,7.80
2018-08-09T10:16:30.803Z,8.60
2018-08-09T10:17:30.793Z,7.70
2018-08-09T10:18:30.788Z,8.00
2018-08-09T10:19:30.817Z,8.90
2018-08-09T10:20:30.762Z,8.80
2018-08-09T10:21:30.753Z,10.10
2018-08-09T10:22:30.741Z,8.00
2018-08-09T10:23:30.734Z,9.80
2018-08-09T10:24:30.717Z,8.90
2018-08-09T10:25:30.751Z,7.50
2018-08-09T10:26:30.697Z,8.10
2018-08-09T10:27:30.691Z,7.50
2018-08-09T10:28:30.676Z,7.90
2018-08-09T10:29:30.668Z,8.10
2018-08-09T10:30:30.700Z,8.10
2018-08-09T10:31:30.646Z,6.90
2018-08-09T10:32:30.633Z,6.90
2018-08-09T10:33:30.622Z,7.80
2018-08-09T10:34:30.613Z,8.10
2018-08-09T10:35:30.745Z,8.80
2018-08-09T10:36:30.607Z,6.60
2018-08-09T10:37:30.581Z,7.20
2018-08-09T10:38:30.578Z,7.60
2018-08-09T10:39:30.561Z,7.80
2018-08-09T10:40:30.593Z,6.70
2018-08-09T10:41:30.536Z,7.60
2018-08-09T10:42:30.525Z,6.80
2018-08-09T10:43:30.518Z,6.30
2018-08-09T10:44:30.510Z,6.60
2018-08-09T10:45:30.539Z,6.70
2018-08-09T10:46:30.488Z,7.70
2018-08-09T10:47:30.488Z,8.70
2018-08-09T10:48:30.462Z,7.00
2018-08-09T10:49:30.470Z,6.60
2018-08-09T10:50:30.488Z,8.00
2018-08-09T10:51:30.433Z,8.10
2018-08-09T10:52:30.423Z,9.50
2018-08-09T10:53:30.409Z,8.50
2018-08-09T10:54:30.398Z,6.20
2018-08-09T10:55:30.440Z,6.30
2018-08-09T10:56:30.391Z,6.90
2018-08-09T10:57:30.366Z,7.10
2018-08-09T10:58:30.451Z,7.30
2018-08-09T10:59:30.346Z,6.70
2018-08-09T11:00:30.382Z,6.90
2018-08-09T11:01:30.326Z,6.90
2018-08-09T11:02:30.319Z,7.00
2018-08-09T11:03:30.305Z,6.70
2018-08-09T11:04:30.302Z,6.70
2018-08-09T11:05:30.326Z,7.60
2018-08-09T11:06:30.273Z,6.40
2018-08-09T11:07:30.308Z,6.40
2018-08-09T11:08:30.264Z,7.60
2018-08-09T11:09:30.242Z,6.40
2018-08-09T11:10:30.238Z,6.10
2018-08-09T11:11:30.224Z,6.40
2018-08-09T11:12:30.254Z,5.90
2018-08-09T11:13:30.204Z,6.30
2018-08-09T11:14:30.189Z,7.20
2018-08-09T11:15:30.179Z,6.80
2018-08-09T11:16:30.175Z,6.50
2018-08-09T11:17:30.203Z,6.50
2018-08-09T11:18:30.146Z,6.20
2018-08-09T11:19:30.137Z,6.80
2018-08-09T11:20:30.129Z,6.60
2018-08-09T11:21:30.116Z,6.50
2018-08-09T11:22:30.155Z,6.40
2018-08-09T11:23:30.095Z,6.50
2018-08-09T11:24:30.084Z,6.80
2018-08-09T11:25:30.073Z,6.40
2018-08-09T11:26:30.067Z,6.80
2018-08-09T11:27:30.099Z,6.80
2018-08-09T11:28:30.051Z,6.60
2018-08-09T11:29:30.030Z,7.40
2018-08-09T11:30:30.020Z,7.80
2018-08-09T11:31:30.010Z,6.70
2018-08-09T11:32:30.000Z,6.70
2018-08-09T11:33:30.041Z,6.10
2018-08-09T11:34:29.979Z,7.90
2018-08-09T11:35:29.968Z,6.60
2018-08-09T11:36:29.957Z,7.30
2018-08-09T11:37:29.946Z,6.70
2018-08-09T11:38:29.979Z,6.00
2018-08-09T11:39:29.937Z,8.50
2018-08-09T11:40:29.917Z,6.40
2018-08-09T11:41:29.903Z,6.20
2018-08-09T11:42:29.895Z,7.30
2018-08-09T11:43:29.947Z,6.30
2018-08-09T11:44:29.874Z,6.20
2018-08-09T11:45:29.874Z,7.00
2018-08-09T11:46:29.855Z,7.30
2018-08-09T11:47:29.842Z,6.30
2018-08-09T11:48:29.877Z,7.30
2018-08-09T11:49:29.833Z,6.10
2018-08-09T11:50:29.811Z,7.70
2018-08-09T11:51:29.800Z,6.80
2018-08-09T11:52:29.800Z,7.50
2018-08-09T11:53:29.823Z,6.40
2018-08-09T11:54:29.769Z,9.30
2018-08-09T11:55:29.770Z,6.50
2018-08-09T11:56:29.861Z,6.80
2018-08-09T11:57:29.740Z,7.70
2018-08-09T11:58:29.783Z,7.00
2018-08-09T11:59:29.718Z,7.20
2018-08-09T12:00:29.710Z,6.70
2018-08-09T12:01:29.746Z,6.30
2018-08-09T12:02:29.689Z,7.30
2018-08-09T12:03:29.752Z,6.60
2018-08-09T12:04:29.682Z,6.30
2018-08-09T12:05:29.657Z,7.10
2018-08-09T12:06:29.653Z,6.60
2018-08-09T12:07:29.634Z,11.20
2018-08-09T12:08:29.670Z,6.20
2018-08-09T12:09:29.664Z,6.40
2018-08-09T12:10:29.606Z,6.20
2018-08-09T12:11:29.611Z,6.20
2018-08-09T12:12:29.590Z,6.70
2018-08-09T12:13:29.725Z,7.30
2018-08-09T12:14:29.566Z,6.20
2018-08-09T12:15:29.557Z,7.10
2018-08-09T12:16:29.543Z,7.50
2018-08-09T12:17:29.564Z,7.30
2018-08-09T12:18:29.568Z,6.70
2018-08-09T12:19:29.515Z,7.40
2018-08-09T12:20:29.503Z,7.30
2018-08-09T12:21:29.496Z,6.60
2018-08-09T12:22:29.483Z,6.30
2018-08-09T12:23:29.521Z,6.70
2018-08-09T12:24:29.465Z,7.20
2018-08-09T12:25:29.457Z,6.60
2018-08-09T12:26:29.450Z,6.40
2018-08-09T12:27:29.440Z,6.70
2018-08-09T12:28:29.472Z,7.00
2018-08-09T12:29:29.420Z,6.10
2018-08-09T12:30:29.448Z,6.40
2018-08-09T12:31:29.396Z,6.10
2018-08-09T12:32:29.386Z,6.40
2018-08-09T12:33:29.426Z,6.90
2018-08-09T12:34:29.365Z,6.10
2018-08-09T12:35:29.359Z,6.20
2018-08-09T12:36:29.367Z,7.40
2018-08-09T12:37:29.334Z,6.50
2018-08-09T12:38:29.368Z,6.70
2018-08-09T12:39:29.318Z,6.40
2018-08-09T12:40:29.305Z,6.50
2018-08-09T12:41:29.296Z,6.70
2018-08-09T12:42:29.286Z,6.60
2018-08-09T12:43:29.318Z,6.50
2018-08-09T12:44:29.270Z,6.40
2018-08-09T12:45:29.264Z,6.60
2018-08-09T12:46:29.243Z,6.60
2018-08-09T12:47:29.234Z,6.70
2018-08-09T12:48:29.269Z,6.70
2018-08-09T12:49:29.213Z,6.30
2018-08-09T12:50:29.239Z,6.10
2018-08-09T12:51:29.301Z,23.80
2018-08-09T12:52:29.196Z,53.90
2018-08-09T12:53:29.230Z,49.00
2018-08-09T12:54:29.162Z,60.90
2018-08-09T12:55:29.152Z,35.70
2018-08-09T12:56:29.149Z,27.20
2018-08-09T12:57:29.135Z,24.20
2018-08-09T12:58:29.170Z,17.50
2018-08-09T12:59:29.109Z,15.30
2018-08-09T13:00:29.099Z,17.90
2018-08-09T13:01:29.089Z,17.70
2018-08-09T13:02:29.129Z,10.60
2018-08-09T13:03:29.114Z,10.80
2018-08-09T13:04:29.059Z,9.30
2018-08-09T13:05:29.054Z,5.90
2018-08-09T13:06:29.035Z,8.80
2018-08-09T13:07:29.029Z,4.50
2018-08-09T13:08:29.104Z,5.90
2018-08-09T13:09:29.003Z,5.10
2018-08-09T13:10:28.997Z,4.20
2018-08-09T13:11:29.033Z,4.50
2018-08-09T13:12:28.974Z,7.20
2018-08-09T13:13:29.011Z,3.40
2018-08-09T13:14:28.964Z,6.40
2018-08-09T13:15:28.945Z,4.20
2018-08-09T13:16:28.941Z,4.90
2018-08-09T13:17:28.919Z,5.30
2018-08-09T13:18:28.959Z,4.80
2018-08-09T13:19:28.900Z,5.70
2018-08-09T13:20:28.885Z,4.30
2018-08-09T13:21:28.876Z,4.10
2018-08-09T13:22:28.866Z,3.50
2018-08-09T13:23:28.938Z,3.40
2018-08-09T13:24:28.841Z,3.60
2018-08-09T13:25:28.832Z,4.40
2018-08-09T13:26:28.826Z,4.30
2018-08-09T13:27:28.813Z,2.80
2018-08-09T13:28:28.863Z,3.50
2018-08-09T13:29:28.796Z,4.50
2018-08-09T13:30:28.782Z,3.70
2018-08-09T13:31:28.766Z,3.20
2018-08-09T13:32:28.755Z,2.40
2018-08-09T13:33:28.795Z,3.20
2018-08-09T13:34:28.743Z,4.40
2018-08-09T13:35:28.724Z,5.30
2018-08-09T13:36:28.712Z,4.50
2018-08-09T13:37:28.704Z,2.90
2018-08-09T13:38:28.742Z,3.80
2018-08-09T13:39:28.680Z,3.80
2018-08-09T13:40:28.672Z,4.00
2018-08-09T13:41:28.682Z,2.80
2018-08-09T13:42:28.655Z,2.60
2018-08-09T13:43:28.690Z,2.50
2018-08-09T13:44:28.632Z,3.40
2018-08-09T13:45:28.616Z,2.30
2018-08-09T13:46:28.608Z,3.80
2018-08-09T13:47:28.596Z,4.20
2018-08-09T13:48:28.588Z,2.40
2018-08-09T13:49:28.623Z,3.20
2018-08-09T13:50:28.590Z,2.60
2018-08-09T13:51:28.556Z,3.50
2018-08-09T13:52:28.540Z,2.50
2018-08-09T13:53:28.537Z,5.20
2018-08-09T13:54:28.568Z,2.90
2018-08-09T13:55:28.506Z,3.50
2018-08-09T13:56:28.498Z,4.70
2018-08-09T13:57:28.488Z,4.20
2018-08-09T13:58:28.491Z,3.90
2018-08-09T13:59:28.517Z,5.10
2018-08-09T14:00:28.453Z,4.20
2018-08-09T14:01:28.440Z,3.70
2018-08-09T14:02:28.431Z,2.80
2018-08-09T14:03:28.421Z,3.90
2018-08-09T14:04:28.455Z,3.70
2018-08-09T14:05:28.405Z,3.20
2018-08-09T14:06:28.398Z,3.00
2018-08-09T14:07:28.376Z,3.50
2018-08-09T14:08:28.369Z,3.30
2018-08-09T14:09:28.400Z,3.10